KMQY  Smyrna Airport

Add Bookmark

Smyrna, Tennessee, United States

Status Useage
Operational Public
Latitude Longitude
36° 0' 32" N 86° 31' 12" W
36.008972 -86.520083
Local (DST -5) UTC (GMT -6)
Aug 29, 2014 09:01 Aug 29, 2014 14:01
Sunrise-Sunset Local UTC
Begin Civil Twilight 05:48 10:48
Sunrise 06:14 11:14
Sunset 07:18 00:18
End Civil Twilight 07:44 00:44

Current Weather

METAR Observed VFR
KMQY 291256Z 14004KT 10SM CLR 23/22 A3005 Fri, Aug 29, 2014 @ 12:56 UTC
(1 Hour, 5 Minutes ago)
Visual Flight Rules
Wind Visibility Clouds Conditions
140° at 4 knots (5 mph) 10 statute miles
  • Clear skies
  • No significant weather
Temperatures Readings Precipitation
Current Temp 23°C (73°F)
Dewpoint 22°C (72°F)
Humidity 94%
Altimeter 30.05"Hg
Sea Level Pressure 1018mb
Field Elevation 543'
None Recorded

Additional weather within a 50nm radius of KMQY

Map ICAO Location
KBNA 10.3nm N (312°)
KSYI 27.2nm S (173°)
KRNC 37.8nm E (119°)
KTHA 40nm S (161°)
KMRC 42.1nm S (230°)
KSRB 48.1nm E (086°)

24 Hour Weather History

Loading
-

24 Hour Weather Graphs

Loading
-

CheckWX.com is intended as a tool to help pilots better visualize weather data. It is not intended as a substitute for an official weather briefing obtained from a Flight Service Station. CheckWX.com does not meet the FAA requirements for an official pre-flight weather briefing. Therefore, it's important that pilots still call and obtain an official FSS pre-flight weather briefing.